sensor_id;sensor_type;location;lat;lon;timestamp;pressure;altitude;pressure_sealevel;temperature;humidity
39295;BME280;52361;52.100;5.248;2023-05-14T00:01:34;101963.0;;;15.84;97.08
39295;BME280;52361;52.100;5.248;2023-05-14T00:03:11;101962.0;;;15.72;96.67
39295;BME280;52361;52.100;5.248;2023-05-14T00:06:23;101959.0;;;15.8;96.32
39295;BME280;52361;52.100;5.248;2023-05-14T00:07:59;101961.0;;;15.71;96.35
39295;BME280;52361;52.100;5.248;2023-05-14T00:09:35;101957.0;;;15.53;97.1
39295;BME280;52361;52.100;5.248;2023-05-14T00:12:50;101957.0;;;15.28;97.83
39295;BME280;52361;52.100;5.248;2023-05-14T00:14:26;101956.0;;;15.23;99.0
39295;BME280;52361;52.100;5.248;2023-05-14T00:16:02;101957.0;;;15.39;98.13
39295;BME280;52361;52.100;5.248;2023-05-14T00:19:15;101953.0;;;15.62;96.33
39295;BME280;52361;52.100;5.248;2023-05-14T00:20:51;101955.0;;;15.11;97.83
39295;BME280;52361;52.100;5.248;2023-05-14T00:22:28;101949.0;;;15.41;96.55
39295;BME280;52361;52.100;5.248;2023-05-14T00:25:40;101949.0;;;15.55;97.5
39295;BME280;52361;52.100;5.248;2023-05-14T00:27:16;101952.0;;;15.56;95.63
39295;BME280;52361;52.100;5.248;2023-05-14T00:28:52;101948.0;;;15.51;95.9
39295;BME280;52361;52.100;5.248;2023-05-14T00:30:29;101946.0;;;15.58;95.59
39295;BME280;52361;52.100;5.248;2023-05-14T00:33:43;101942.0;;;15.51;95.41
39295;BME280;52361;52.100;5.248;2023-05-14T00:35:19;101935.0;;;15.4;96.1
39295;BME280;52361;52.100;5.248;2023-05-14T00:36:56;101934.0;;;15.48;97.01
39295;BME280;52361;52.100;5.248;2023-05-14T00:40:09;101932.0;;;15.34;95.84
39295;BME280;52361;52.100;5.248;2023-05-14T00:41:45;101933.0;;;15.19;96.15
39295;BME280;52361;52.100;5.248;2023-05-14T00:43:21;101930.0;;;15.38;95.15
39295;BME280;52361;52.100;5.248;2023-05-14T00:46:35;101928.0;;;15.39;95.22
39295;BME280;52361;52.100;5.248;2023-05-14T00:48:11;101924.0;;;15.43;94.3
39295;BME280;52361;52.100;5.248;2023-05-14T00:49:48;101924.0;;;15.4;94.0
39295;BME280;52361;52.100;5.248;2023-05-14T00:51:25;101915.0;;;15.29;93.96
39295;BME280;52361;52.100;5.248;2023-05-14T00:54:38;101915.0;;;15.23;94.67
39295;BME280;52361;52.100;5.248;2023-05-14T00:56:15;101912.0;;;15.26;94.65
39295;BME280;52361;52.100;5.248;2023-05-14T00:57:53;101911.0;;;15.2;94.52
39295;BME280;52361;52.100;5.248;2023-05-14T01:01:08;101915.0;;;15.4;93.34
39295;BME280;52361;52.100;5.248;2023-05-14T01:02:44;101917.0;;;15.33;93.57
39295;BME280;52361;52.100;5.248;2023-05-14T01:04:20;101917.0;;;15.23;93.96
39295;BME280;52361;52.100;5.248;2023-05-14T01:06:01;101911.0;;;15.23;94.23
39295;BME280;52361;52.100;5.248;2023-05-14T01:10:00;101911.0;;;15.23;95.33
39295;BME280;52361;52.100;5.248;2023-05-14T01:11:42;101912.0;;;14.98;95.52
39295;BME280;52361;52.100;5.248;2023-05-14T01:13:28;101913.0;;;14.99;95.6
39295;BME280;52361;52.100;5.248;2023-05-14T01:15:11;101913.0;;;14.99;95.41
39295;BME280;52361;52.100;5.248;2023-05-14T01:16:53;101914.0;;;14.96;95.4
39295;BME280;52361;52.100;5.248;2023-05-14T01:18:32;101911.0;;;14.97;95.84
39295;BME280;52361;52.100;5.248;2023-05-14T01:21:47;101910.0;;;14.98;95.59
39295;BME280;52361;52.100;5.248;2023-05-14T01:23:23;101907.0;;;14.94;95.39
39295;BME280;52361;52.100;5.248;2023-05-14T01:24:59;101906.0;;;14.92;95.56
39295;BME280;52361;52.100;5.248;2023-05-14T01:28:14;101910.0;;;14.89;96.2
39295;BME280;52361;52.100;5.248;2023-05-14T01:29:59;101911.0;;;14.55;96.97
39295;BME280;52361;52.100;5.248;2023-05-14T01:31:39;101910.0;;;14.61;97.7
39295;BME280;52361;52.100;5.248;2023-05-14T01:33:20;101914.0;;;14.77;97.16
39295;BME280;52361;52.100;5.248;2023-05-14T01:36:36;101911.0;;;14.74;97.67
39295;BME280;52361;52.100;5.248;2023-05-14T01:38:16;101911.0;;;14.67;97.79
39295;BME280;52361;52.100;5.248;2023-05-14T01:39:55;101909.0;;;14.72;97.73
39295;BME280;52361;52.100;5.248;2023-05-14T01:41:32;101906.0;;;14.63;98.12
39295;BME280;52361;52.100;5.248;2023-05-14T01:44:45;101906.0;;;14.54;98.07
39295;BME280;52361;52.100;5.248;2023-05-14T01:46:21;101908.0;;;14.62;98.08
39295;BME280;52361;52.100;5.248;2023-05-14T01:47:58;101906.0;;;14.49;99.21
39295;BME280;52361;52.100;5.248;2023-05-14T01:51:11;101902.0;;;14.5;99.1
39295;BME280;52361;52.100;5.248;2023-05-14T01:52:47;101903.0;;;14.64;98.61
39295;BME280;52361;52.100;5.248;2023-05-14T01:54:23;101896.0;;;14.59;99.16
39295;BME280;52361;52.100;5.248;2023-05-14T01:57:35;101898.0;;;14.57;99.99
39295;BME280;52361;52.100;5.248;2023-05-14T01:59:11;101896.0;;;14.42;100.0
39295;BME280;52361;52.100;5.248;2023-05-14T02:00:47;101897.0;;;14.41;100.0
39295;BME280;52361;52.100;5.248;2023-05-14T02:02:25;101884.0;;;14.49;100.0
39295;BME280;52361;52.100;5.248;2023-05-14T02:05:37;101881.0;;;14.46;100.0
39295;BME280;52361;52.100;5.248;2023-05-14T02:07:13;101881.0;;;14.46;100.0
39295;BME280;52361;52.100;5.248;2023-05-14T02:08:49;101878.0;;;14.4;100.0
39295;BME280;52361;52.100;5.248;2023-05-14T02:12:02;101880.0;;;14.32;100.0
39295;BME280;52361;52.100;5.248;2023-05-14T02:13:39;101878.0;;;14.32;100.0
39295;BME280;52361;52.100;5.248;2023-05-14T02:15:15;101875.0;;;14.24;100.0
39295;BME280;52361;52.100;5.248;2023-05-14T02:18:27;101870.0;;;14.23;100.0
39295;BME280;52361;52.100;5.248;2023-05-14T02:20:04;101874.0;;;14.05;100.0
39295;BME280;52361;52.100;5.248;2023-05-14T02:21:42;101874.0;;;14.04;100.0
39295;BME280;52361;52.100;5.248;2023-05-14T02:24:54;101878.0;;;14.06;100.0
39295;BME280;52361;52.100;5.248;2023-05-14T02:26:30;101880.0;;;14.12;100.0
39295;BME280;52361;52.100;5.248;2023-05-14T02:28:06;101877.0;;;14.08;100.0
39295;BME280;52361;52.100;5.248;2023-05-14T02:29:43;101878.0;;;14.06;100.0
39295;BME280;52361;52.100;5.248;2023-05-14T02:32:56;101877.0;;;14.04;100.0
39295;BME280;52361;52.100;5.248;2023-05-14T02:34:32;101870.0;;;13.9;100.0
39295;BME280;52361;52.100;5.248;2023-05-14T02:36:09;101874.0;;;13.81;100.0
39295;BME280;52361;52.100;5.248;2023-05-14T02:39:22;101877.0;;;13.78;100.0
39295;BME280;52361;52.100;5.248;2023-05-14T02:40:58;101872.0;;;13.68;100.0
39295;BME280;52361;52.100;5.248;2023-05-14T02:42:34;101869.0;;;13.69;100.0
39295;BME280;52361;52.100;5.248;2023-05-14T02:45:47;101869.0;;;13.59;100.0
39295;BME280;52361;52.100;5.248;2023-05-14T02:47:23;101870.0;;;13.59;100.0
39295;BME280;52361;52.100;5.248;2023-05-14T02:48:59;101869.0;;;13.52;100.0
39295;BME280;52361;52.100;5.248;2023-05-14T02:50:36;101869.0;;;13.52;100.0
39295;BME280;52361;52.100;5.248;2023-05-14T02:53:49;101862.0;;;13.48;100.0
39295;BME280;52361;52.100;5.248;2023-05-14T02:55:25;101865.0;;;13.47;100.0
39295;BME280;52361;52.100;5.248;2023-05-14T02:57:01;101867.0;;;13.53;100.0
39295;BME280;52361;52.100;5.248;2023-05-14T03:00:13;101864.0;;;13.47;100.0
39295;BME280;52361;52.100;5.248;2023-05-14T03:01:50;101865.0;;;13.43;100.0
39295;BME280;52361;52.100;5.248;2023-05-14T03:03:28;101863.0;;;13.52;100.0
39295;BME280;52361;52.100;5.248;2023-05-14T03:06:41;101860.0;;;13.53;100.0
39295;BME280;52361;52.100;5.248;2023-05-14T03:08:17;101861.0;;;13.61;100.0
39295;BME280;52361;52.100;5.248;2023-05-14T03:09:53;101853.0;;;13.55;100.0
39295;BME280;52361;52.100;5.248;2023-05-14T03:11:29;101853.0;;;13.45;100.0
39295;BME280;52361;52.100;5.248;2023-05-14T03:14:41;101860.0;;;13.35;100.0
39295;BME280;52361;52.100;5.248;2023-05-14T03:16:17;101856.0;;;13.25;100.0
39295;BME280;52361;52.100;5.248;2023-05-14T03:17:55;101856.0;;;13.13;100.0
39295;BME280;52361;52.100;5.248;2023-05-14T03:21:08;101855.0;;;13.1;100.0
39295;BME280;52361;52.100;5.248;2023-05-14T03:22:44;101857.0;;;13.02;100.0
39295;BME280;52361;52.100;5.248;2023-05-14T03:24:21;101860.0;;;12.98;100.0
39295;BME280;52361;52.100;5.248;2023-05-14T03:27:34;101857.0;;;13.05;100.0
39295;BME280;52361;52.100;5.248;2023-05-14T03:29:11;101855.0;;;12.94;100.0
39295;BME280;52361;52.100;5.248;2023-05-14T03:30:47;101859.0;;;12.89;100.0
39295;BME280;52361;52.100;5.248;2023-05-14T03:32:23;101855.0;;;12.84;100.0
39295;BME280;52361;52.100;5.248;2023-05-14T03:35:35;101850.0;;;12.85;100.0
39295;BME280;52361;52.100;5.248;2023-05-14T03:37:12;101853.0;;;12.87;100.0
39295;BME280;52361;52.100;5.248;2023-05-14T03:38:48;101852.0;;;12.85;100.0
39295;BME280;52361;52.100;5.248;2023-05-14T03:42:00;101852.0;;;12.85;100.0
39295;BME280;52361;52.100;5.248;2023-05-14T03:43:36;101858.0;;;12.82;100.0
39295;BME280;52361;52.100;5.248;2023-05-14T03:45:12;101852.0;;;12.76;100.0
39295;BME280;52361;52.100;5.248;2023-05-14T03:48:24;101855.0;;;12.86;100.0
39295;BME280;52361;52.100;5.248;2023-05-14T03:50:01;101850.0;;;12.83;100.0
39295;BME280;52361;52.100;5.248;2023-05-14T03:51:38;101849.0;;;12.97;100.0
39295;BME280;52361;52.100;5.248;2023-05-14T03:54:51;101848.0;;;12.95;100.0
39295;BME280;52361;52.100;5.248;2023-05-14T03:56:27;101845.0;;;12.94;100.0
39295;BME280;52361;52.100;5.248;2023-05-14T03:58:03;101842.0;;;12.81;100.0
39295;BME280;52361;52.100;5.248;2023-05-14T03:59:39;101844.0;;;12.78;100.0
39295;BME280;52361;52.100;5.248;2023-05-14T04:02:52;101841.0;;;12.83;100.0
39295;BME280;52361;52.100;5.248;2023-05-14T04:04:28;101842.0;;;12.89;100.0
39295;BME280;52361;52.100;5.248;2023-05-14T04:06:04;101843.0;;;12.84;100.0
39295;BME280;52361;52.100;5.248;2023-05-14T04:09:16;101846.0;;;12.81;100.0
39295;BME280;52361;52.100;5.248;2023-05-14T04:10:52;101841.0;;;12.66;100.0
39295;BME280;52361;52.100;5.248;2023-05-14T04:12:29;101840.0;;;12.67;100.0
39295;BME280;52361;52.100;5.248;2023-05-14T04:15:41;101842.0;;;12.72;100.0
39295;BME280;52361;52.100;5.248;2023-05-14T04:17:18;101837.0;;;12.78;100.0
39295;BME280;52361;52.100;5.248;2023-05-14T04:18:54;101838.0;;;12.67;100.0
39295;BME280;52361;52.100;5.248;2023-05-14T04:20:30;101833.0;;;12.6;100.0
39295;BME280;52361;52.100;5.248;2023-05-14T04:23:43;101831.0;;;12.64;100.0
39295;BME280;52361;52.100;5.248;2023-05-14T04:25:19;101828.0;;;12.63;100.0
39295;BME280;52361;52.100;5.248;2023-05-14T04:26:55;101833.0;;;12.69;100.0
39295;BME280;52361;52.100;5.248;2023-05-14T04:30:08;101831.0;;;12.72;100.0
39295;BME280;52361;52.100;5.248;2023-05-14T04:31:44;101834.0;;;12.8;100.0
39295;BME280;52361;52.100;5.248;2023-05-14T04:33:21;101840.0;;;12.78;100.0
39295;BME280;52361;52.100;5.248;2023-05-14T04:36:33;101843.0;;;12.84;100.0
39295;BME280;52361;52.100;5.248;2023-05-14T04:38:09;101840.0;;;12.88;100.0
39295;BME280;52361;52.100;5.248;2023-05-14T04:39:45;101845.0;;;12.92;100.0
39295;BME280;52361;52.100;5.248;2023-05-14T04:42:57;101841.0;;;12.91;100.0
39295;BME280;52361;52.100;5.248;2023-05-14T04:44:34;101845.0;;;13.02;100.0
39295;BME280;52361;52.100;5.248;2023-05-14T04:46:11;101844.0;;;13.06;100.0
39295;BME280;52361;52.100;5.248;2023-05-14T04:47:47;101845.0;;;13.12;100.0
39295;BME280;52361;52.100;5.248;2023-05-14T04:51:00;101840.0;;;13.18;100.0
39295;BME280;52361;52.100;5.248;2023-05-14T04:52:36;101838.0;;;13.32;100.0
39295;BME280;52361;52.100;5.248;2023-05-14T04:54:13;101839.0;;;13.39;100.0
39295;BME280;52361;52.100;5.248;2023-05-14T04:57:25;101843.0;;;13.45;100.0
39295;BME280;52361;52.100;5.248;2023-05-14T04:59:01;101838.0;;;13.53;100.0
39295;BME280;52361;52.100;5.248;2023-05-14T05:00:38;101846.0;;;13.78;100.0
39295;BME280;52361;52.100;5.248;2023-05-14T05:03:51;101845.0;;;13.94;100.0
39295;BME280;52361;52.100;5.248;2023-05-14T05:05:27;101840.0;;;13.95;100.0
39295;BME280;52361;52.100;5.248;2023-05-14T05:07:03;101845.0;;;14.09;100.0
39295;BME280;52361;52.100;5.248;2023-05-14T05:08:40;101848.0;;;14.3;100.0
39295;BME280;52361;52.100;5.248;2023-05-14T05:11:53;101847.0;;;14.35;100.0
39295;BME280;52361;52.100;5.248;2023-05-14T05:13:30;101844.0;;;14.49;100.0
39295;BME280;52361;52.100;5.248;2023-05-14T05:15:07;101844.0;;;14.51;100.0
39295;BME280;52361;52.100;5.248;2023-05-14T05:18:20;101852.0;;;14.6;100.0
39295;BME280;52361;52.100;5.248;2023-05-14T05:19:56;101855.0;;;14.69;100.0
39295;BME280;52361;52.100;5.248;2023-05-14T05:21:32;101857.0;;;14.58;100.0
39295;BME280;52361;52.100;5.248;2023-05-14T05:24:46;101856.0;;;14.67;100.0
39295;BME280;52361;52.100;5.248;2023-05-14T05:26:22;101856.0;;;14.83;100.0
39295;BME280;52361;52.100;5.248;2023-05-14T05:27:59;101860.0;;;14.95;100.0
39295;BME280;52361;52.100;5.248;2023-05-14T05:29:35;101861.0;;;15.07;100.0
39295;BME280;52361;52.100;5.248;2023-05-14T05:32:47;101857.0;;;15.07;100.0
39295;BME280;52361;52.100;5.248;2023-05-14T05:34:23;101860.0;;;15.31;100.0
39295;BME280;52361;52.100;5.248;2023-05-14T05:36:00;101863.0;;;15.22;100.0
39295;BME280;52361;52.100;5.248;2023-05-14T05:39:12;101857.0;;;15.55;100.0
39295;BME280;52361;52.100;5.248;2023-05-14T05:40:48;101859.0;;;15.77;100.0
39295;BME280;52361;52.100;5.248;2023-05-14T05:42:24;101855.0;;;15.78;100.0
39295;BME280;52361;52.100;5.248;2023-05-14T05:45:37;101862.0;;;16.14;100.0
39295;BME280;52361;52.100;5.248;2023-05-14T05:47:13;101864.0;;;16.09;100.0
39295;BME280;52361;52.100;5.248;2023-05-14T05:48:49;101865.0;;;16.27;100.0
39295;BME280;52361;52.100;5.248;2023-05-14T05:52:02;101862.0;;;16.45;100.0
39295;BME280;52361;52.100;5.248;2023-05-14T05:53:39;101863.0;;;16.43;100.0
39295;BME280;52361;52.100;5.248;2023-05-14T05:55:15;101866.0;;;16.11;100.0
39295;BME280;52361;52.100;5.248;2023-05-14T05:56:51;101867.0;;;16.25;100.0
39295;BME280;52361;52.100;5.248;2023-05-14T06:00:05;101860.0;;;16.27;100.0
39295;BME280;52361;52.100;5.248;2023-05-14T06:01:42;101865.0;;;16.43;100.0
39295;BME280;52361;52.100;5.248;2023-05-14T06:03:18;101862.0;;;16.45;100.0
39295;BME280;52361;52.100;5.248;2023-05-14T06:06:31;101868.0;;;16.39;100.0
39295;BME280;52361;52.100;5.248;2023-05-14T06:08:07;101869.0;;;16.62;100.0
39295;BME280;52361;52.100;5.248;2023-05-14T06:09:43;101864.0;;;16.84;100.0
39295;BME280;52361;52.100;5.248;2023-05-14T06:12:55;101858.0;;;16.62;100.0
39295;BME280;52361;52.100;5.248;2023-05-14T06:14:31;101851.0;;;16.72;100.0
39295;BME280;52361;52.100;5.248;2023-05-14T06:16:08;101860.0;;;16.84;100.0
39295;BME280;52361;52.100;5.248;2023-05-14T06:17:45;101862.0;;;17.14;100.0
39295;BME280;52361;52.100;5.248;2023-05-14T06:20:58;101862.0;;;17.36;100.0
39295;BME280;52361;52.100;5.248;2023-05-14T06:22:34;101869.0;;;17.52;100.0
39295;BME280;52361;52.100;5.248;2023-05-14T06:24:10;101872.0;;;17.84;99.91
39295;BME280;52361;52.100;5.248;2023-05-14T06:27:25;101880.0;;;18.02;99.37
39295;BME280;52361;52.100;5.248;2023-05-14T06:29:01;101878.0;;;18.02;98.33
39295;BME280;52361;52.100;5.248;2023-05-14T06:30:37;101880.0;;;17.98;97.88
39295;BME280;52361;52.100;5.248;2023-05-14T06:33:49;101875.0;;;17.89;98.02
39295;BME280;52361;52.100;5.248;2023-05-14T06:35:25;101875.0;;;17.64;98.12
39295;BME280;52361;52.100;5.248;2023-05-14T06:37:01;101877.0;;;17.55;99.29
39295;BME280;52361;52.100;5.248;2023-05-14T06:38:38;101873.0;;;17.64;100.0
39295;BME280;52361;52.100;5.248;2023-05-14T06:41:50;101866.0;;;17.57;100.0
39295;BME280;52361;52.100;5.248;2023-05-14T06:43:26;101872.0;;;17.52;100.0
39295;BME280;52361;52.100;5.248;2023-05-14T06:45:03;101876.0;;;17.45;100.0
39295;BME280;52361;52.100;5.248;2023-05-14T06:48:16;101871.0;;;17.48;100.0
39295;BME280;52361;52.100;5.248;2023-05-14T06:49:53;101873.0;;;17.46;100.0
39295;BME280;52361;52.100;5.248;2023-05-14T06:51:29;101874.0;;;17.63;100.0
39295;BME280;52361;52.100;5.248;2023-05-14T06:54:41;101864.0;;;17.89;100.0
39295;BME280;52361;52.100;5.248;2023-05-14T06:56:17;101867.0;;;17.84;100.0
39295;BME280;52361;52.100;5.248;2023-05-14T06:57:54;101865.0;;;17.95;100.0
39295;BME280;52361;52.100;5.248;2023-05-14T06:59:30;101859.0;;;17.97;100.0
39295;BME280;52361;52.100;5.248;2023-05-14T07:02:42;101867.0;;;18.18;100.0
39295;BME280;52361;52.100;5.248;2023-05-14T07:04:18;101855.0;;;18.36;100.0
39295;BME280;52361;52.100;5.248;2023-05-14T07:05:56;101856.0;;;18.5;99.82
39295;BME280;52361;52.100;5.248;2023-05-14T07:09:08;101865.0;;;18.59;100.0
39295;BME280;52361;52.100;5.248;2023-05-14T07:10:44;101862.0;;;18.68;98.79
39295;BME280;52361;52.100;5.248;2023-05-14T07:12:21;101865.0;;;18.81;97.92
39295;BME280;52361;52.100;5.248;2023-05-14T07:15:33;101867.0;;;19.03;97.57
39295;BME280;52361;52.100;5.248;2023-05-14T07:17:10;101864.0;;;19.21;97.19
39295;BME280;52361;52.100;5.248;2023-05-14T07:18:46;101869.0;;;19.22;96.32
39295;BME280;52361;52.100;5.248;2023-05-14T07:21:58;101870.0;;;19.0;97.57
39295;BME280;52361;52.100;5.248;2023-05-14T07:23:34;101870.0;;;18.93;97.31
39295;BME280;52361;52.100;5.248;2023-05-14T07:25:11;101871.0;;;18.91;97.68
39295;BME280;52361;52.100;5.248;2023-05-14T07:26:47;101869.0;;;18.79;97.29
39295;BME280;52361;52.100;5.248;2023-05-14T07:30:00;101861.0;;;18.77;99.08
39295;BME280;52361;52.100;5.248;2023-05-14T07:31:36;101864.0;;;19.0;96.97
39295;BME280;52361;52.100;5.248;2023-05-14T07:33:12;101865.0;;;19.14;96.34
39295;BME280;52361;52.100;5.248;2023-05-14T07:36:24;101860.0;;;19.25;94.98
39295;BME280;52361;52.100;5.248;2023-05-14T07:38:01;101865.0;;;19.36;94.91
39295;BME280;52361;52.100;5.248;2023-05-14T07:39:38;101864.0;;;19.39;95.57
39295;BME280;52361;52.100;5.248;2023-05-14T07:42:51;101861.0;;;19.54;95.88
39295;BME280;52361;52.100;5.248;2023-05-14T07:44:27;101857.0;;;19.77;92.92
39295;BME280;52361;52.100;5.248;2023-05-14T07:46:04;101857.0;;;19.93;91.74
39295;BME280;52361;52.100;5.248;2023-05-14T07:47:40;101855.0;;;20.05;90.31
39295;BME280;52361;52.100;5.248;2023-05-14T07:50:53;101853.0;;;19.77;87.5
39295;BME280;52361;52.100;5.248;2023-05-14T07:52:30;101853.0;;;19.78;88.11
39295;BME280;52361;52.100;5.248;2023-05-14T07:54:06;101846.0;;;19.59;87.12
39295;BME280;52361;52.100;5.248;2023-05-14T07:57:19;101846.0;;;19.59;86.65
39295;BME280;52361;52.100;5.248;2023-05-14T07:58:56;101847.0;;;20.04;87.15
39295;BME280;52361;52.100;5.248;2023-05-14T08:00:33;101851.0;;;20.29;84.76
39295;BME280;52361;52.100;5.248;2023-05-14T08:03:45;101847.0;;;20.57;85.83
39295;BME280;52361;52.100;5.248;2023-05-14T08:05:21;101851.0;;;20.63;84.39
39295;BME280;52361;52.100;5.248;2023-05-14T08:06:57;101855.0;;;20.78;83.34
39295;BME280;52361;52.100;5.248;2023-05-14T08:08:33;101849.0;;;20.68;86.1
39295;BME280;52361;52.100;5.248;2023-05-14T08:11:46;101856.0;;;20.89;82.79
39295;BME280;52361;52.100;5.248;2023-05-14T08:13:22;101849.0;;;20.58;82.37
39295;BME280;52361;52.100;5.248;2023-05-14T08:14:58;101845.0;;;20.76;81.36
39295;BME280;52361;52.100;5.248;2023-05-14T08:18:10;101845.0;;;20.8;84.02
39295;BME280;52361;52.100;5.248;2023-05-14T08:19:46;101847.0;;;20.97;81.05
39295;BME280;52361;52.100;5.248;2023-05-14T08:21:22;101847.0;;;20.78;79.23
39295;BME280;52361;52.100;5.248;2023-05-14T08:24:35;101850.0;;;21.06;78.41
39295;BME280;52361;52.100;5.248;2023-05-14T08:26:11;101850.0;;;21.12;79.33
39295;BME280;52361;52.100;5.248;2023-05-14T08:27:47;101855.0;;;21.26;82.6
39295;BME280;52361;52.100;5.248;2023-05-14T08:30:59;101855.0;;;21.36;79.24
39295;BME280;52361;52.100;5.248;2023-05-14T08:32:36;101852.0;;;21.45;77.63
39295;BME280;52361;52.100;5.248;2023-05-14T08:34:12;101851.0;;;21.47;76.41
39295;BME280;52361;52.100;5.248;2023-05-14T08:35:49;101850.0;;;21.48;77.17
39295;BME280;52361;52.100;5.248;2023-05-14T08:39:03;101850.0;;;21.38;74.89
39295;BME280;52361;52.100;5.248;2023-05-14T08:40:40;101846.0;;;21.43;74.0
39295;BME280;52361;52.100;5.248;2023-05-14T08:42:18;101840.0;;;21.92;75.66
39295;BME280;52361;52.100;5.248;2023-05-14T08:45:45;101841.0;;;22.14;72.69
39295;BME280;52361;52.100;5.248;2023-05-14T08:47:24;101839.0;;;22.31;74.41
39295;BME280;52361;52.100;5.248;2023-05-14T08:49:07;101838.0;;;22.13;73.98
39295;BME280;52361;52.100;5.248;2023-05-14T08:50:55;101830.0;;;22.12;72.16
39295;BME280;52361;52.100;5.248;2023-05-14T08:55:49;101819.0;;;22.27;74.02
39295;BME280;52361;52.100;5.248;2023-05-14T08:57:27;101827.0;;;22.29;74.99
39295;BME280;52361;52.100;5.248;2023-05-14T08:59:05;101830.0;;;22.19;75.02
39295;BME280;52361;52.100;5.248;2023-05-14T09:02:19;101826.0;;;22.27;72.99
39295;BME280;52361;52.100;5.248;2023-05-14T09:03:59;101824.0;;;22.24;72.16
39295;BME280;52361;52.100;5.248;2023-05-14T09:05:36;101819.0;;;22.04;71.38
39295;BME280;52361;52.100;5.248;2023-05-14T09:07:13;101823.0;;;22.22;74.28
39295;BME280;52361;52.100;5.248;2023-05-14T09:10:27;101824.0;;;22.26;74.0
39295;BME280;52361;52.100;5.248;2023-05-14T09:12:05;101818.0;;;22.32;71.95
39295;BME280;52361;52.100;5.248;2023-05-14T09:13:41;101816.0;;;22.52;73.86
39295;BME280;52361;52.100;5.248;2023-05-14T09:16:54;101814.0;;;22.94;71.69
39295;BME280;52361;52.100;5.248;2023-05-14T09:18:30;101818.0;;;23.05;71.16
39295;BME280;52361;52.100;5.248;2023-05-14T09:20:08;101817.0;;;23.06;71.91
39295;BME280;52361;52.100;5.248;2023-05-14T09:21:45;101813.0;;;23.32;69.44
39295;BME280;52361;52.100;5.248;2023-05-14T09:25:03;101809.0;;;23.35;72.75
39295;BME280;52361;52.100;5.248;2023-05-14T09:26:40;101811.0;;;23.49;69.22
39295;BME280;52361;52.100;5.248;2023-05-14T09:28:17;101819.0;;;23.58;68.77
39295;BME280;52361;52.100;5.248;2023-05-14T09:31:30;101810.0;;;23.25;67.05
39295;BME280;52361;52.100;5.248;2023-05-14T09:33:08;101808.0;;;23.18;68.5
39295;BME280;52361;52.100;5.248;2023-05-14T09:34:45;101805.0;;;23.42;65.99
39295;BME280;52361;52.100;5.248;2023-05-14T09:37:58;101805.0;;;23.13;67.77
39295;BME280;52361;52.100;5.248;2023-05-14T09:39:36;101801.0;;;23.29;68.66
39295;BME280;52361;52.100;5.248;2023-05-14T09:41:13;101797.0;;;23.31;68.3
39295;BME280;52361;52.100;5.248;2023-05-14T09:42:49;101796.0;;;23.26;69.61
39295;BME280;52361;52.100;5.248;2023-05-14T09:46:03;101796.0;;;23.37;66.19
39295;BME280;52361;52.100;5.248;2023-05-14T09:47:40;101794.0;;;23.34;66.86
39295;BME280;52361;52.100;5.248;2023-05-14T09:49:18;101789.0;;;23.62;69.97
39295;BME280;52361;52.100;5.248;2023-05-14T09:52:31;101789.0;;;23.73;66.88
39295;BME280;52361;52.100;5.248;2023-05-14T09:54:08;101790.0;;;23.64;66.91
39295;BME280;52361;52.100;5.248;2023-05-14T09:55:45;101783.0;;;23.81;66.05
39295;BME280;52361;52.100;5.248;2023-05-14T09:57:22;101782.0;;;23.79;67.25
39295;BME280;52361;52.100;5.248;2023-05-14T10:00:36;101776.0;;;23.92;67.35
39295;BME280;52361;52.100;5.248;2023-05-14T10:02:15;101781.0;;;24.11;69.36
39295;BME280;52361;52.100;5.248;2023-05-14T10:03:58;101783.0;;;24.33;66.73
39295;BME280;52361;52.100;5.248;2023-05-14T10:07:20;101789.0;;;24.29;65.62
39295;BME280;52361;52.100;5.248;2023-05-14T10:09:00;101788.0;;;24.31;64.62
39295;BME280;52361;52.100;5.248;2023-05-14T10:10:39;101782.0;;;24.2;65.97
39295;BME280;52361;52.100;5.248;2023-05-14T10:12:19;101784.0;;;24.17;64.94
39295;BME280;52361;52.100;5.248;2023-05-14T10:15:47;101783.0;;;23.84;66.47
39295;BME280;52361;52.100;5.248;2023-05-14T10:17:30;101776.0;;;23.9;66.17
39295;BME280;52361;52.100;5.248;2023-05-14T10:19:08;101773.0;;;24.17;65.48
39295;BME280;52361;52.100;5.248;2023-05-14T10:20:47;101769.0;;;24.5;66.37
39295;BME280;52361;52.100;5.248;2023-05-14T10:22:40;101768.0;;;24.33;65.19
39295;BME280;52361;52.100;5.248;2023-05-14T10:25:55;101764.0;;;24.42;66.72
39295;BME280;52361;52.100;5.248;2023-05-14T10:27:32;101769.0;;;24.43;65.3
39295;BME280;52361;52.100;5.248;2023-05-14T10:29:09;101768.0;;;24.54;63.7
39295;BME280;52361;52.100;5.248;2023-05-14T10:30:47;101762.0;;;24.61;63.2
39295;BME280;52361;52.100;5.248;2023-05-14T10:34:00;101762.0;;;24.49;61.55
39295;BME280;52361;52.100;5.248;2023-05-14T10:35:50;101766.0;;;24.34;62.02
39295;BME280;52361;52.100;5.248;2023-05-14T10:37:45;101764.0;;;24.32;60.83
39295;BME280;52361;52.100;5.248;2023-05-14T10:39:22;101765.0;;;24.21;58.95
39295;BME280;52361;52.100;5.248;2023-05-14T10:41:15;101764.0;;;24.64;60.93
39295;BME280;52361;52.100;5.248;2023-05-14T10:44:34;101762.0;;;24.47;62.6
39295;BME280;52361;52.100;5.248;2023-05-14T10:46:11;101757.0;;;24.68;61.11
39295;BME280;52361;52.100;5.248;2023-05-14T10:47:49;101757.0;;;24.77;57.7
39295;BME280;52361;52.100;5.248;2023-05-14T10:51:02;101755.0;;;24.96;58.99
39295;BME280;52361;52.100;5.248;2023-05-14T10:52:40;101748.0;;;24.86;56.47
39295;BME280;52361;52.100;5.248;2023-05-14T10:54:16;101741.0;;;24.75;58.81
39295;BME280;52361;52.100;5.248;2023-05-14T10:55:53;101739.0;;;24.95;57.24
39295;BME280;52361;52.100;5.248;2023-05-14T10:59:09;101744.0;;;24.99;58.83
39295;BME280;52361;52.100;5.248;2023-05-14T11:00:46;101737.0;;;25.0;56.93
39295;BME280;52361;52.100;5.248;2023-05-14T11:02:25;101744.0;;;25.11;57.01
39295;BME280;52361;52.100;5.248;2023-05-14T11:05:39;101744.0;;;25.12;58.22
39295;BME280;52361;52.100;5.248;2023-05-14T11:07:16;101743.0;;;25.26;57.9
39295;BME280;52361;52.100;5.248;2023-05-14T11:08:54;101742.0;;;25.12;56.48